LiveATC.Net - Listen to live air traffic control over the Internet!

ICAO: KIWA  IATA: IWA   Airport: Phoenix-Mesa Gateway Airport
City: Phoenix   State/Province: Arizona
Country: United States   Continent: North America
KIWA METAR Weather: KIWA 230715Z AUTO 13004KT 10SM CLR 21/06 A2995 RMK AO2
KIWA Flight Activity (FlightAware)
KIWA Airport Info   (AirNav) (iFlightPlanner)
KIWA VFR Sectional Chart   (iFlightPlanner) 
KIWA IFR Low Chart   (iFlightPlanner) 
KIWA Gnd/Twr
Feed Status: UP   Listeners: 0
Listen right in your browser - requires Flash (in browser, requires Flash)
Click here to listen with your own player (launches your MP3 player)
KIWA Gnd/Twr Audio Archives
Gateway Ground128.250
Gateway Tower (East)124.750
Gateway Tower (Helicopter)118.800
Gateway Tower (West)/CTAF120.600


Unauthorized use prohibited. See Terms of Service

Find LiveATC Audio Streams

Airport/ARTCC Code

(e.g., 124.400, 128.75)
Site-wide search

Browse LiveATC Feeds
LiveATC Coverage Map
Top 50 LiveATC Feeds
Bad Weather Areas

Offer a LiveATC Feed
Press Inquiries

LiveATC on iPhone
LiveATC on Android

Windows Phone
Windows 8/10

LiveATC Mobile
(Mobile browser)

ATC Audio Archives
Interesting Recordings

LiveATC Forums

Home Page
Make a Donation
LiveATC Store

Terms of Use
Privacy Policy

Canadian Air Freqs


FAA Airport Status
Nat'l Airspace Status
Arrival Demand Charts

Server Software By: